Hovedside
METAR-TAF:

METAR-TAF

Lufthavner :

Leconfield, England

breddegrad: 53-52-37N, lengdegrad: 0-26-15W, høyde over havet: 7 m

Gjeldene værobservasjon

Denne rapporten ble laget for 39 minutter siden, klokken 13:50 UTC
Vind 9 kt fra Sørvest
Temperatur 25°C
Luftfuktighet 47%
Trykk 1018 hPa
Sikt 10 km eller mer

METAR: EGXV 181350Z AUTO 22009KT 9999 FEW084/// 25/13 Q1018

Tid: 15:29 (14:29 UTC)


TAF: fraværende

Værobservasjoner og værvarsel for over 4000 flyplasser (METAR- og TAF-rapporter).

Tilgjengelige stasjoner er representert av de røde og gule prikkene på kartet.

Hold musepekeren over prikken for å se navnet på stasjonen.

Klikk så for å se værobservasjoner og -varsler.

For å forandre kartet kan du klikke på den grønne knappen med svart kryss for å zoome inn, på den grønne knappen med strek for å zoome ut, eller på de grønne pilene for å se tilstøtende kart.


METAR-TAF: